EEL RIVER CAMP CA US current weather conditions

sailwx.info

Wind from 065 at 6 knots gusting 13

Air temperature 36.7° C
Dewpoint 10.0° C

Last reported at 2014-Aug-01 23:28 UTC.
Time now 2014-Aug-02 00:25 UTC

Location: N 40°08' W 123°49'.
View on Google Maps.

See reports from other nearby stations

  
Tides and Currents Weather Stations Pressure Air Temp Water Temp Dewpoint Dewpoint Depression Visibility Wind Speed Wind Dir Waves Ship Positions
date/time (UTC)wind fromknots sea level pressurealtimeterstation pressurevisibilityair tempwater tempwave heightnotes
2014-Aug-01 23:28 065 6 gusting 13 36.7
2014-Aug-01 22:28 076 6 gusting 11 37.8
2014-Aug-01 21:28 065 6 gusting 11 37.2
2014-Aug-01 20:28 076 4 gusting 9 36.1
2014-Aug-01 19:28 077 5 gusting 8 33.3
2014-Aug-01 18:28 150 2 gusting 6 30.0
2014-Aug-01 17:28 143 2 gusting 4 25.6
2014-Aug-01 16:28 049 1 gusting 4 20.6
2014-Aug-01 15:28 054 1 gusting 3 16.7
2014-Aug-01 14:28 057 2 gusting 4 12.8
2014-Aug-01 13:28 10.6
2014-Aug-01 12:28 312 1 gusting 2 10.6
2014-Aug-01 11:28 11.7
2014-Aug-01 10:28 298 0 gusting 4 12.8
2014-Aug-01 09:28 028 0 gusting 3 13.9
2014-Aug-01 08:28 019 0 gusting 5 15.0
2014-Aug-01 07:28 057 1 gusting 4 16.7
2014-Aug-01 06:28 010 0 gusting 6 18.3
2014-Aug-01 05:28 084 2 gusting 6 20.6
2014-Aug-01 04:28 085 3 gusting 11 23.9
2014-Aug-01 03:28 045 6 gusting 14 26.7
2014-Aug-01 02:28 052 8 gusting 16 31.1
2014-Aug-01 01:28 056 6 gusting 13 36.1
2014-Aug-01 00:28 277 6 gusting 13 38.3
2014-Jul-31 23:28 208 6 gusting 12 38.3
2014-Jul-31 22:28 228 6 gusting 12 38.9
2014-Jul-31 21:28 147 4 gusting 11 38.9
2014-Jul-31 20:28 162 3 gusting 7 37.8
2014-Jul-31 19:28 170 2 gusting 6 35.6
2014-Jul-31 18:28 322 1 gusting 3 31.1
2014-Jul-31 17:28 131 1 gusting 4 26.7
2014-Jul-31 16:28 059 1 gusting 4 22.8
2014-Jul-31 15:28 071 2 gusting 4 18.3
2014-Jul-31 14:28 021 0 gusting 2 13.9
2014-Jul-31 13:28 11.7
2014-Jul-31 12:28 318 1 gusting 2 12.8
2014-Jul-31 11:28 276 0 gusting 2 12.8
2014-Jul-31 10:28 269 1 gusting 2 14.4
2014-Jul-31 09:28 319 0 gusting 3 15.6
2014-Jul-31 08:28 310 1 gusting 2 16.7
2014-Jul-31 07:28 17.8
2014-Jul-31 06:28 19.4
2014-Jul-31 04:28 057 4 gusting 8 26.1
2014-Jul-31 03:28 052 5 gusting 10 28.3
2014-Jul-31 02:28 009 3 gusting 9 32.8
2014-Jul-31 01:28 029 4 gusting 8 35.6
2014-Jul-31 00:28 043 4 gusting 13 37.2